Airport Name : El Arish Intl

Other Name : El Arish Intl

ICAO : HEAR

IATA : AAC

FAA :

Latitude : 31.073333

Longitude : 33.835833

Country : Egypt

Local Date and Time : 20 Sep 2020 00:12

 

TAF (Terminal Aerodrome Forecast)

TAF HEAR 191700Z 1918/2024 32010KT 9999 SCT025

 

METAR (METeorological Aerodrome Report)

To Charter a Jet Click here.